UAE66V EBBR-OMDB
Flight info
| Callsign | UAE66V |
|---|---|
| Flight time | N/A |
| Altitude | 35000 |
| Route | SOPOK Y863 OGLOR DCT VIBOM DCT NOMBO DCT RIDAR DCT GOMIG DCT GOTAR DCT BABIT DCT TISAK DCT MAVIT DCT RASUB DCT ARTAT UP975 ERMUP DCT TKT DCT OTKEP UM688 RATVO/N0482F370 DCT SIDAD P975 SESRU DCT VUTEB |
| Aircraft | B77W/H-SDE1E2E3FGHIJ2J3J4J5M1RWXY/LB1D1 |
Departure
| Time | 2026-05-06 14:24 |
|---|---|
| Airport | Brussels Airport (EBBR) |
Arrival
| Time | N/A |
|---|---|
| Airport | Dubai International Airport (OMDB) |
| Time | Latitude | Longitude | Altitude | Speed | Heading |
|---|---|---|---|---|---|
| 2026-05-06 13:52 | 50.90082 | 4.49185 | 135 ft | 0 kts | 335° |
| 2026-05-06 14:08 | 50.90079 | 4.49187 | 128 ft | 3 kts | 335° |
| 2026-05-06 14:08 | 50.90057 | 4.49204 | 134 ft | 4 kts | 334° |
| 2026-05-06 14:09 | 50.90034 | 4.49220 | 137 ft | 1 kts | 340° |
| 2026-05-06 14:09 | 50.90012 | 4.49229 | 137 ft | 4 kts | 2° |
| 2026-05-06 14:09 | 50.89987 | 4.49219 | 138 ft | 4 kts | 34° |
| 2026-05-06 14:09 | 50.89969 | 4.49190 | 139 ft | 4 kts | 66° |
| 2026-05-06 14:10 | 50.89965 | 4.49178 | 139 ft | 2 kts | 76° |
| 2026-05-06 14:10 | 50.89966 | 4.49178 | 140 ft | 0 kts | 76° |
| 2026-05-06 14:12 | 50.89966 | 4.49179 | 140 ft | 0 kts | 76° |
| 2026-05-06 14:12 | 50.89995 | 4.49318 | 137 ft | 24 kts | 65° |
| 2026-05-06 14:12 | 50.90133 | 4.49461 | 127 ft | 19 kts | 15° |
| 2026-05-06 14:12 | 50.90150 | 4.49468 | 126 ft | 0 kts | 15° |
| 2026-05-06 14:20 | 50.90152 | 4.49469 | 126 ft | 1 kts | 15° |
| 2026-05-06 14:20 | 50.90183 | 4.49482 | 130 ft | 8 kts | 15° |
| 2026-05-06 14:20 | 50.90252 | 4.49510 | 130 ft | 11 kts | 14° |
| 2026-05-06 14:21 | 50.90330 | 4.49541 | 127 ft | 12 kts | 13° |
| 2026-05-06 14:21 | 50.90407 | 4.49570 | 129 ft | 12 kts | 13° |
| 2026-05-06 14:21 | 50.90485 | 4.49603 | 126 ft | 12 kts | 15° |
| 2026-05-06 14:21 | 50.90564 | 4.49636 | 126 ft | 14 kts | 14° |
| 2026-05-06 14:22 | 50.90716 | 4.49699 | 127 ft | 29 kts | 14° |
| 2026-05-06 14:22 | 50.90878 | 4.49763 | 124 ft | 18 kts | 16° |
| 2026-05-06 14:22 | 50.90987 | 4.49866 | 121 ft | 18 kts | 34° |
| 2026-05-06 14:22 | 50.91097 | 4.49938 | 121 ft | 13 kts | 2° |
| 2026-05-06 14:23 | 50.91133 | 4.49884 | 122 ft | 7 kts | 265° |
| 2026-05-06 14:23 | 50.91116 | 4.49807 | 122 ft | 7 kts | 248° |
| 2026-05-06 14:23 | 50.91068 | 4.49643 | 120 ft | 44 kts | 245° |
| 2026-05-06 14:23 | 50.90794 | 4.48680 | 120 ft | 150 kts | 245° |
| 2026-05-06 14:24 | 50.90336 | 4.46961 | 504 ft | 204 kts | 251° |
| 2026-05-06 14:24 | 50.89773 | 4.44834 | 1678 ft | 225 kts | 248° |
| 2026-05-06 14:24 | 50.89124 | 4.42662 | 2828 ft | 234 kts | 247° |
| 2026-05-06 14:24 | 50.88156 | 4.40579 | 3443 ft | 255 kts | 219° |
| 2026-05-06 14:25 | 50.86431 | 4.39395 | 3653 ft | 285 kts | 181° |
| 2026-05-06 14:25 | 50.84604 | 4.40022 | 4743 ft | 277 kts | 149° |
| 2026-05-06 14:25 | 50.83320 | 4.41933 | 5681 ft | 273 kts | 117° |
| 2026-05-06 14:25 | 50.82758 | 4.44732 | 6506 ft | 271 kts | 99° |
| 2026-05-06 14:26 | 50.82047 | 4.47535 | 7116 ft | 282 kts | 122° |
| 2026-05-06 14:26 | 50.80915 | 4.50080 | 7890 ft | 286 kts | 122° |
| 2026-05-06 14:26 | 50.79891 | 4.52524 | 8716 ft | 289 kts | 121° |
| 2026-05-06 14:26 | 50.78755 | 4.55260 | 9610 ft | 294 kts | 122° |
| 2026-05-06 14:27 | 50.77617 | 4.57950 | 10424 ft | 300 kts | 123° |
| 2026-05-06 14:27 | 50.76408 | 4.60772 | 10765 ft | 324 kts | 123° |
| 2026-05-06 14:27 | 50.75092 | 4.63828 | 10993 ft | 351 kts | 124° |
| 2026-05-06 14:27 | 50.73542 | 4.66990 | 11243 ft | 376 kts | 130° |
| 2026-05-06 14:28 | 50.71763 | 4.70089 | 11980 ft | 385 kts | 132° |
| 2026-05-06 14:28 | 50.69950 | 4.73252 | 12730 ft | 391 kts | 128° |
| 2026-05-06 14:28 | 50.68576 | 4.76963 | 13325 ft | 394 kts | 107° |
| 2026-05-06 14:28 | 50.67828 | 4.81109 | 14070 ft | 397 kts | 104° |
| 2026-05-06 14:29 | 50.67087 | 4.85298 | 14878 ft | 402 kts | 105° |
| 2026-05-06 14:29 | 50.66296 | 4.89566 | 15673 ft | 408 kts | 105° |
| 2026-05-06 14:29 | 50.65468 | 4.93898 | 16431 ft | 415 kts | 106° |
| 2026-05-06 14:29 | 50.64617 | 4.98258 | 17290 ft | 418 kts | 107° |
| 2026-05-06 14:30 | 50.63758 | 5.02610 | 18092 ft | 424 kts | 107° |
| 2026-05-06 14:30 | 50.62874 | 5.07071 | 18734 ft | 431 kts | 107° |
| 2026-05-06 14:30 | 50.61977 | 5.11582 | 19551 ft | 432 kts | 107° |
| 2026-05-06 14:30 | 50.61077 | 5.16106 | 20401 ft | 432 kts | 108° |
| 2026-05-06 14:31 | 50.60176 | 5.20633 | 21080 ft | 437 kts | 108° |
| 2026-05-06 14:31 | 50.59258 | 5.25223 | 21780 ft | 442 kts | 108° |
| 2026-05-06 14:31 | 50.58056 | 5.29623 | 22330 ft | 442 kts | 124° |
| 2026-05-06 14:31 | 50.55963 | 5.33165 | 22905 ft | 441 kts | 140° |
| 2026-05-06 14:32 | 50.53611 | 5.36315 | 23419 ft | 448 kts | 139° |
| 2026-05-06 14:32 | 50.51267 | 5.39586 | 24006 ft | 451 kts | 138° |
| 2026-05-06 14:32 | 50.48958 | 5.42903 | 24722 ft | 450 kts | 137° |
| 2026-05-06 14:32 | 50.46670 | 5.46241 | 25421 ft | 449 kts | 137° |
| 2026-05-06 14:33 | 50.44385 | 5.49593 | 26053 ft | 450 kts | 137° |
| 2026-05-06 14:33 | 50.42091 | 5.52960 | 26548 ft | 454 kts | 137° |
| 2026-05-06 14:33 | 50.39770 | 5.56359 | 26963 ft | 459 kts | 137° |
| 2026-05-06 14:33 | 50.37425 | 5.59784 | 27427 ft | 462 kts | 137° |
| 2026-05-06 14:34 | 50.35069 | 5.63217 | 27986 ft | 464 kts | 137° |
| 2026-05-06 14:34 | 50.32692 | 5.66677 | 28391 ft | 468 kts | 137° |
| 2026-05-06 14:34 | 50.30306 | 5.70143 | 28859 ft | 469 kts | 137° |
| 2026-05-06 14:34 | 50.27902 | 5.73630 | 29312 ft | 471 kts | 137° |
| 2026-05-06 14:35 | 50.25743 | 5.77416 | 29887 ft | 467 kts | 124° |
| 2026-05-06 14:35 | 50.24341 | 5.81919 | 30259 ft | 471 kts | 107° |
| 2026-05-06 14:35 | 50.23612 | 5.86957 | 30531 ft | 471 kts | 104° |
| 2026-05-06 14:35 | 50.22853 | 5.91964 | 30721 ft | 476 kts | 105° |
| 2026-05-06 14:36 | 50.22020 | 5.96958 | 31190 ft | 474 kts | 106° |
| 2026-05-06 14:36 | 50.21160 | 6.01945 | 31512 ft | 477 kts | 107° |
| 2026-05-06 14:36 | 50.20295 | 6.06962 | 31764 ft | 480 kts | 107° |
| 2026-05-06 14:36 | 50.19440 | 6.12007 | 32175 ft | 480 kts | 105° |
| 2026-05-06 14:37 | 50.18839 | 6.17093 | 32615 ft | 481 kts | 98° |
| 2026-05-06 14:37 | 50.18587 | 6.22178 | 33012 ft | 482 kts | 94° |
| 2026-05-06 14:37 | 50.18624 | 6.27476 | 33361 ft | 484 kts | 87° |
| 2026-05-06 14:37 | 50.18953 | 6.32664 | 33702 ft | 485 kts | 85° |
| 2026-05-06 14:38 | 50.19323 | 6.37844 | 34006 ft | 486 kts | 85° |
| 2026-05-06 14:38 | 50.19689 | 6.43085 | 34293 ft | 486 kts | 86° |
| 2026-05-06 14:38 | 50.20033 | 6.48339 | 34513 ft | 487 kts | 86° |
| 2026-05-06 14:38 | 50.20359 | 6.53619 | 34711 ft | 490 kts | 87° |
| 2026-05-06 14:39 | 50.20281 | 6.64228 | 34795 ft | 487 kts | 102° |
| 2026-05-06 14:39 | 50.18357 | 6.74185 | 34794 ft | 476 kts | 117° |
| 2026-05-06 14:40 | 50.15638 | 6.83538 | 34801 ft | 475 kts | 117° |
| 2026-05-06 14:40 | 50.12912 | 6.92927 | 34793 ft | 476 kts | 117° |
| 2026-05-06 14:41 | 50.10213 | 7.02334 | 34807 ft | 476 kts | 117° |
| 2026-05-06 14:41 | 50.07516 | 7.11774 | 34807 ft | 477 kts | 117° |
| 2026-05-06 14:42 | 50.04825 | 7.21166 | 34801 ft | 477 kts | 117° |
| 2026-05-06 14:42 | 50.02118 | 7.30571 | 34804 ft | 477 kts | 117° |
| 2026-05-06 14:43 | 49.99400 | 7.39970 | 34793 ft | 477 kts | 117° |
| 2026-05-06 14:43 | 49.96675 | 7.49358 | 34796 ft | 477 kts | 117° |
| 2026-05-06 14:44 | 49.93943 | 7.58734 | 34790 ft | 476 kts | 117° |
| 2026-05-06 14:45 | 49.89834 | 7.72766 | 34793 ft | 475 kts | 117° |
| 2026-05-06 14:45 | 49.87091 | 7.82086 | 34779 ft | 475 kts | 118° |
| 2026-05-06 14:46 | 49.84359 | 7.91339 | 34772 ft | 476 kts | 118° |
| 2026-05-06 14:46 | 49.81596 | 8.00656 | 34792 ft | 476 kts | 118° |
| 2026-05-06 14:47 | 49.78826 | 8.09962 | 34780 ft | 477 kts | 118° |
| 2026-05-06 14:47 | 49.76037 | 8.19298 | 34779 ft | 478 kts | 118° |
| 2026-05-06 14:48 | 49.73235 | 8.28637 | 34786 ft | 479 kts | 118° |
| 2026-05-06 14:48 | 49.70419 | 8.37992 | 34780 ft | 480 kts | 118° |
| 2026-05-06 14:49 | 49.67593 | 8.47342 | 34778 ft | 481 kts | 118° |
| 2026-05-06 14:49 | 49.64737 | 8.56755 | 34772 ft | 481 kts | 119° |
| 2026-05-06 14:50 | 49.61915 | 8.66022 | 34779 ft | 481 kts | 119° |
| 2026-05-06 14:50 | 49.59067 | 8.75338 | 34777 ft | 481 kts | 119° |
| 2026-05-06 14:51 | 49.56206 | 8.84662 | 34778 ft | 480 kts | 119° |
| 2026-05-06 14:51 | 49.53344 | 8.93954 | 34785 ft | 480 kts | 119° |
| 2026-05-06 14:52 | 49.50479 | 9.03229 | 34775 ft | 480 kts | 120° |
| 2026-05-06 14:52 | 49.47604 | 9.12493 | 34784 ft | 480 kts | 120° |
| 2026-05-06 14:53 | 49.44282 | 9.21333 | 34793 ft | 474 kts | 128° |
| 2026-05-06 14:53 | 49.40627 | 9.29770 | 34792 ft | 475 kts | 128° |
| 2026-05-06 14:54 | 49.36978 | 9.38219 | 34796 ft | 476 kts | 128° |
| 2026-05-06 14:54 | 49.33364 | 9.46645 | 34790 ft | 475 kts | 129° |
| 2026-05-06 14:55 | 49.29730 | 9.55108 | 34798 ft | 475 kts | 129° |
| 2026-05-06 14:55 | 49.26089 | 9.63561 | 34798 ft | 476 kts | 129° |
| 2026-05-06 14:56 | 49.22441 | 9.71999 | 34799 ft | 475 kts | 129° |
| 2026-05-06 14:56 | 49.18785 | 9.80430 | 34798 ft | 476 kts | 130° |
| 2026-05-06 14:57 | 49.15117 | 9.88859 | 34801 ft | 478 kts | 130° |
| 2026-05-06 14:57 | 49.11445 | 9.97277 | 34800 ft | 479 kts | 130° |
| 2026-05-06 14:58 | 49.07738 | 10.05736 | 34778 ft | 478 kts | 131° |
| 2026-05-06 14:58 | 49.03553 | 10.13335 | 34792 ft | 465 kts | 142° |
| 2026-05-06 14:59 | 48.98948 | 10.20197 | 34784 ft | 462 kts | 142° |
| 2026-05-06 14:59 | 48.94371 | 10.27052 | 34791 ft | 461 kts | 142° |
| 2026-05-06 15:00 | 48.89817 | 10.33914 | 34790 ft | 461 kts | 141° |
| 2026-05-06 15:00 | 48.85244 | 10.40808 | 34797 ft | 463 kts | 142° |
| 2026-05-06 15:01 | 48.80666 | 10.47690 | 34786 ft | 463 kts | 142° |
| 2026-05-06 15:01 | 48.76084 | 10.54560 | 34767 ft | 464 kts | 142° |
| 2026-05-06 15:02 | 48.71477 | 10.61444 | 34778 ft | 466 kts | 142° |
| 2026-05-06 15:02 | 48.66858 | 10.68332 | 34794 ft | 467 kts | 142° |
| 2026-05-06 15:03 | 48.62229 | 10.75230 | 34786 ft | 469 kts | 141° |
| 2026-05-06 15:03 | 48.58339 | 10.83331 | 34776 ft | 486 kts | 125° |
| 2026-05-06 15:04 | 48.55776 | 10.92850 | 34759 ft | 495 kts | 115° |
| 2026-05-06 15:04 | 48.53956 | 11.01098 | 34767 ft | 499 kts | 115° |
| 2026-05-06 15:05 | 48.51731 | 11.11085 | 34741 ft | 500 kts | 115° |
| 2026-05-06 15:05 | 48.49495 | 11.20873 | 34759 ft | 497 kts | 116° |
| 2026-05-06 15:06 | 48.47218 | 11.30688 | 34712 ft | 494 kts | 116° |
| 2026-05-06 15:06 | 48.44947 | 11.40421 | 34742 ft | 492 kts | 116° |
| 2026-05-06 15:07 | 48.42675 | 11.50119 | 34759 ft | 491 kts | 116° |
| 2026-05-06 15:07 | 48.40412 | 11.59739 | 34770 ft | 490 kts | 116° |
| 2026-05-06 15:08 | 48.38127 | 11.69414 | 34754 ft | 491 kts | 116° |
| 2026-05-06 15:08 | 48.35814 | 11.79166 | 34784 ft | 492 kts | 116° |
| 2026-05-06 15:09 | 48.33513 | 11.88822 | 34766 ft | 495 kts | 116° |
| 2026-05-06 15:09 | 48.31166 | 11.98630 | 34760 ft | 496 kts | 116° |
| 2026-05-06 15:10 | 48.28834 | 12.08334 | 34763 ft | 497 kts | 116° |
| 2026-05-06 15:10 | 48.26481 | 12.18083 | 34731 ft | 498 kts | 117° |
| 2026-05-06 15:11 | 48.24131 | 12.27777 | 34713 ft | 499 kts | 117° |
| 2026-05-06 15:11 | 48.21745 | 12.37575 | 34715 ft | 499 kts | 117° |
| 2026-05-06 15:12 | 48.19370 | 12.47288 | 34709 ft | 499 kts | 117° |
| 2026-05-06 15:12 | 48.17007 | 12.56909 | 34707 ft | 498 kts | 117° |
| 2026-05-06 15:13 | 48.14614 | 12.66617 | 34709 ft | 498 kts | 117° |
| 2026-05-06 15:13 | 48.11993 | 12.76048 | 34707 ft | 493 kts | 121° |
| 2026-05-06 15:14 | 48.09156 | 12.85327 | 34705 ft | 492 kts | 122° |
| 2026-05-06 15:14 | 48.06310 | 12.94589 | 34698 ft | 492 kts | 122° |
| 2026-05-06 15:15 | 48.03461 | 13.03895 | 34697 ft | 492 kts | 122° |
| 2026-05-06 15:15 | 48.00620 | 13.13179 | 34698 ft | 493 kts | 122° |
| 2026-05-06 15:16 | 47.97760 | 13.22499 | 34697 ft | 493 kts | 122° |
| 2026-05-06 15:16 | 47.94897 | 13.31793 | 34697 ft | 492 kts | 122° |
| 2026-05-06 15:17 | 47.92034 | 13.41050 | 34702 ft | 492 kts | 122° |
| 2026-05-06 15:17 | 47.89173 | 13.50263 | 34711 ft | 492 kts | 122° |
| 2026-05-06 15:18 | 47.86291 | 13.59511 | 34710 ft | 493 kts | 122° |
| 2026-05-06 15:18 | 47.83402 | 13.68747 | 34705 ft | 492 kts | 122° |
| 2026-05-06 15:19 | 47.80505 | 13.77972 | 34725 ft | 493 kts | 122° |
| 2026-05-06 15:19 | 47.77607 | 13.87171 | 34732 ft | 493 kts | 122° |
| 2026-05-06 15:20 | 47.74697 | 13.96380 | 34726 ft | 492 kts | 122° |
| 2026-05-06 15:20 | 47.71782 | 14.05564 | 34746 ft | 488 kts | 122° |
| 2026-05-06 15:21 | 47.68871 | 14.14692 | 34779 ft | 491 kts | 122° |
| 2026-05-06 15:21 | 47.65940 | 14.23853 | 34785 ft | 492 kts | 122° |
| 2026-05-06 15:22 | 47.62993 | 14.33038 | 34784 ft | 493 kts | 122° |
| 2026-05-06 15:22 | 47.60047 | 14.42191 | 34779 ft | 494 kts | 122° |
| 2026-05-06 15:23 | 47.57155 | 14.51144 | 34792 ft | 494 kts | 122° |
| 2026-05-06 15:23 | 47.54195 | 14.60268 | 34807 ft | 495 kts | 122° |
| 2026-05-06 15:24 | 47.51210 | 14.69438 | 34815 ft | 496 kts | 122° |
| 2026-05-06 15:24 | 47.48225 | 14.78576 | 34812 ft | 496 kts | 122° |
| 2026-05-06 15:25 | 47.45228 | 14.87724 | 34820 ft | 496 kts | 122° |
| 2026-05-06 15:25 | 47.42212 | 14.96888 | 34829 ft | 496 kts | 122° |
| 2026-05-06 15:26 | 47.39215 | 15.05971 | 34830 ft | 495 kts | 122° |
| 2026-05-06 15:26 | 47.36207 | 15.15046 | 34822 ft | 495 kts | 121° |
| 2026-05-06 15:27 | 47.33171 | 15.24177 | 34818 ft | 495 kts | 121° |
| 2026-05-06 15:27 | 47.30134 | 15.33278 | 34830 ft | 495 kts | 121° |
| 2026-05-06 15:28 | 47.27098 | 15.42347 | 34839 ft | 494 kts | 121° |
| 2026-05-06 15:28 | 47.24058 | 15.51399 | 34825 ft | 492 kts | 121° |
| 2026-05-06 15:29 | 47.21017 | 15.60415 | 34837 ft | 492 kts | 122° |
| 2026-05-06 15:29 | 47.17969 | 15.69422 | 34839 ft | 492 kts | 122° |
| 2026-05-06 15:30 | 47.14906 | 15.78443 | 34844 ft | 492 kts | 122° |
| 2026-05-06 15:30 | 47.11840 | 15.87441 | 34835 ft | 493 kts | 121° |
| 2026-05-06 15:31 | 47.08768 | 15.96432 | 34844 ft | 493 kts | 121° |
| 2026-05-06 15:31 | 47.05685 | 16.05421 | 34856 ft | 493 kts | 121° |
| 2026-05-06 15:32 | 47.01067 | 16.18831 | 34869 ft | 493 kts | 122° |
| 2026-05-06 15:32 | 46.97912 | 16.27762 | 34866 ft | 492 kts | 123° |
| 2026-05-06 15:33 | 46.94595 | 16.36512 | 34863 ft | 491 kts | 124° |
| 2026-05-06 15:33 | 46.91252 | 16.45232 | 34868 ft | 491 kts | 124° |
| 2026-05-06 15:34 | 46.87931 | 16.53944 | 34861 ft | 491 kts | 124° |
| 2026-05-06 15:34 | 46.84616 | 16.62665 | 34866 ft | 491 kts | 124° |
| 2026-05-06 15:35 | 46.81297 | 16.71379 | 34883 ft | 491 kts | 124° |
| 2026-05-06 15:35 | 46.77967 | 16.80088 | 34882 ft | 492 kts | 124° |
| 2026-05-06 15:36 | 46.74629 | 16.88793 | 34886 ft | 492 kts | 124° |
| 2026-05-06 15:36 | 46.71280 | 16.97494 | 34885 ft | 492 kts | 124° |
| 2026-05-06 15:37 | 46.67937 | 17.06151 | 34886 ft | 492 kts | 124° |
| 2026-05-06 15:37 | 46.64578 | 17.14822 | 34885 ft | 492 kts | 124° |
| 2026-05-06 15:38 | 46.61207 | 17.23497 | 34873 ft | 492 kts | 124° |
| 2026-05-06 15:38 | 46.57830 | 17.32161 | 34887 ft | 493 kts | 124° |
| 2026-05-06 15:39 | 46.54478 | 17.40730 | 34895 ft | 494 kts | 124° |
| 2026-05-06 15:39 | 46.51101 | 17.49340 | 34898 ft | 494 kts | 124° |
| 2026-05-06 15:40 | 46.47686 | 17.58016 | 34888 ft | 495 kts | 124° |
| 2026-05-06 15:40 | 46.44264 | 17.66683 | 34897 ft | 496 kts | 124° |
| 2026-05-06 15:41 | 46.40826 | 17.75364 | 34890 ft | 497 kts | 124° |
| 2026-05-06 15:41 | 46.37380 | 17.84038 | 34903 ft | 497 kts | 124° |
| 2026-05-06 15:42 | 46.33928 | 17.92701 | 34880 ft | 497 kts | 124° |
| 2026-05-06 15:42 | 46.30467 | 18.01357 | 34909 ft | 497 kts | 124° |
| 2026-05-06 15:43 | 46.26998 | 18.10006 | 34912 ft | 498 kts | 124° |
| 2026-05-06 15:43 | 46.23516 | 18.18661 | 34918 ft | 498 kts | 124° |
| 2026-05-06 15:44 | 46.20025 | 18.27310 | 34904 ft | 498 kts | 124° |
| 2026-05-06 15:44 | 46.16526 | 18.35952 | 34913 ft | 499 kts | 124° |
| 2026-05-06 15:45 | 46.13016 | 18.44595 | 34908 ft | 500 kts | 124° |
| 2026-05-06 15:45 | 46.09490 | 18.53251 | 34915 ft | 501 kts | 124° |
| 2026-05-06 15:46 | 46.05982 | 18.61833 | 34895 ft | 501 kts | 124° |
| 2026-05-06 15:46 | 46.02447 | 18.70460 | 34896 ft | 500 kts | 124° |
| 2026-05-06 15:47 | 45.99483 | 18.77670 | 34896 ft | 499 kts | 124° |
| 2026-05-06 15:47 | 45.95946 | 18.86253 | 34904 ft | 499 kts | 124° |
| 2026-05-06 15:48 | 45.92414 | 18.94821 | 34892 ft | 499 kts | 123° |
| 2026-05-06 15:48 | 45.89031 | 19.03526 | 34900 ft | 499 kts | 122° |
| 2026-05-06 15:49 | 45.85705 | 19.12277 | 34908 ft | 499 kts | 122° |
| 2026-05-06 15:49 | 45.82357 | 19.20997 | 34905 ft | 499 kts | 122° |
| 2026-05-06 15:50 | 45.78990 | 19.29678 | 34900 ft | 500 kts | 122° |
| 2026-05-06 15:50 | 45.75597 | 19.38381 | 34910 ft | 501 kts | 122° |
| 2026-05-06 15:51 | 45.72185 | 19.47108 | 34913 ft | 502 kts | 122° |
| 2026-05-06 15:51 | 45.68786 | 19.55780 | 34910 ft | 503 kts | 122° |
| 2026-05-06 15:52 | 45.65358 | 19.64499 | 34916 ft | 503 kts | 122° |
| 2026-05-06 15:52 | 45.61929 | 19.73194 | 34914 ft | 502 kts | 122° |
| 2026-05-06 15:53 | 45.58490 | 19.81885 | 34912 ft | 502 kts | 122° |
| 2026-05-06 15:53 | 45.55059 | 19.90526 | 34906 ft | 501 kts | 122° |
| 2026-05-06 15:54 | 45.51617 | 19.99171 | 34914 ft | 500 kts | 122° |
| 2026-05-06 15:54 | 45.48176 | 20.07793 | 34921 ft | 500 kts | 122° |
| 2026-05-06 15:55 | 45.44727 | 20.16409 | 34924 ft | 501 kts | 122° |
| 2026-05-06 15:55 | 45.41845 | 20.25435 | 34919 ft | 504 kts | 110° |
| 2026-05-06 15:56 | 45.40062 | 20.35093 | 34924 ft | 506 kts | 104° |
| 2026-05-06 15:56 | 45.38519 | 20.44863 | 34932 ft | 506 kts | 104° |
| 2026-05-06 15:57 | 45.36935 | 20.54625 | 34932 ft | 507 kts | 104° |
| 2026-05-06 15:57 | 45.35314 | 20.64378 | 34921 ft | 507 kts | 104° |
| 2026-05-06 15:58 | 45.33675 | 20.74139 | 34931 ft | 508 kts | 104° |
| 2026-05-06 15:58 | 45.32028 | 20.83901 | 34924 ft | 508 kts | 104° |
| 2026-05-06 15:59 | 45.30374 | 20.93667 | 34919 ft | 508 kts | 104° |
| 2026-05-06 15:59 | 45.28711 | 21.03429 | 34922 ft | 508 kts | 104° |
| 2026-05-06 16:00 | 45.27044 | 21.13163 | 34923 ft | 507 kts | 104° |
| 2026-05-06 16:00 | 45.25372 | 21.22880 | 34915 ft | 507 kts | 104° |
| 2026-05-06 16:01 | 45.23587 | 21.32456 | 34897 ft | 506 kts | 109° |
| 2026-05-06 16:01 | 45.21006 | 21.41687 | 34919 ft | 505 kts | 113° |
| 2026-05-06 16:02 | 45.18327 | 21.50878 | 34907 ft | 504 kts | 113° |
| 2026-05-06 16:02 | 45.15669 | 21.60078 | 34939 ft | 504 kts | 113° |
| 2026-05-06 16:03 | 45.13088 | 21.69071 | 34938 ft | 504 kts | 112° |
| 2026-05-06 16:03 | 45.10506 | 21.78067 | 34946 ft | 504 kts | 112° |
| 2026-05-06 16:04 | 45.07869 | 21.87214 | 34943 ft | 505 kts | 112° |
| 2026-05-06 16:04 | 45.05211 | 21.96396 | 34956 ft | 505 kts | 112° |
| 2026-05-06 16:05 | 45.02534 | 22.05605 | 34959 ft | 506 kts | 112° |
| 2026-05-06 16:05 | 44.99849 | 22.14807 | 34955 ft | 507 kts | 112° |
| 2026-05-06 16:06 | 44.97158 | 22.23999 | 34966 ft | 508 kts | 112° |